createdAt,value
2022-11-24T00:01:07.679Z,7.10
2022-11-24T00:03:34.676Z,7.10
2022-11-24T00:06:10.945Z,7.10
2022-11-24T00:08:39.528Z,7.10
2022-11-24T00:11:12.435Z,7.20
2022-11-24T00:13:39.939Z,7.20
2022-11-24T00:16:15.905Z,7.30
2022-11-24T00:18:45.096Z,7.30
2022-11-24T00:21:12.675Z,7.40
2022-11-24T00:23:39.704Z,7.40
2022-11-24T00:26:09.406Z,7.50
2022-11-24T00:28:37.594Z,7.40
2022-11-24T00:31:06.311Z,7.40
2022-11-24T00:33:33.511Z,7.50
2022-11-24T00:36:00.891Z,7.60
2022-11-24T00:38:28.003Z,7.80
2022-11-24T00:40:54.869Z,7.90
2022-11-24T00:43:22.137Z,8.00
2022-11-24T00:45:49.178Z,8.10
2022-11-24T00:48:16.256Z,8.20
2022-11-24T00:50:43.167Z,8.10
2022-11-24T00:53:10.221Z,8.20
2022-11-24T00:55:37.085Z,8.20
2022-11-24T00:58:03.926Z,8.10
2022-11-24T01:00:31.587Z,8.00
2022-11-24T01:02:58.541Z,7.90
2022-11-24T01:05:25.460Z,8.00
2022-11-24T01:07:52.420Z,7.90
2022-11-24T01:10:19.409Z,8.00
2022-11-24T01:12:46.370Z,7.90
2022-11-24T01:15:13.436Z,7.80
2022-11-24T01:17:40.292Z,7.80
2022-11-24T01:20:07.973Z,7.80
2022-11-24T01:22:35.202Z,7.70
2022-11-24T01:25:02.218Z,7.70
2022-11-24T01:27:29.150Z,7.80
2022-11-24T01:29:56.011Z,7.80
2022-11-24T01:32:23.290Z,7.70
2022-11-24T01:34:50.190Z,7.70
2022-11-24T01:37:17.131Z,7.60
2022-11-24T01:39:43.998Z,7.50
2022-11-24T01:42:10.963Z,7.60
2022-11-24T01:44:37.804Z,7.50
2022-11-24T01:47:21.342Z,7.50
2022-11-24T01:49:53.251Z,7.50
2022-11-24T01:52:40.496Z,7.60
2022-11-24T01:55:13.333Z,7.60
2022-11-24T01:57:48.393Z,7.50
2022-11-24T02:00:15.833Z,7.40
2022-11-24T02:02:45.422Z,7.50
2022-11-24T02:05:18.460Z,7.60
2022-11-24T02:07:47.170Z,7.70
2022-11-24T02:10:15.791Z,7.70
2022-11-24T02:12:46.866Z,7.70
2022-11-24T02:15:18.185Z,7.70
2022-11-24T02:17:45.123Z,7.70
2022-11-24T02:20:13.453Z,7.70
2022-11-24T02:22:49.250Z,7.60
2022-11-24T02:25:37.457Z,7.50
2022-11-24T02:28:10.314Z,7.50
2022-11-24T02:30:37.523Z,7.40
2022-11-24T02:33:04.451Z,7.50
2022-11-24T02:35:32.088Z,7.50
2022-11-24T02:37:58.964Z,7.40
2022-11-24T02:40:28.521Z,7.40
2022-11-24T02:43:09.524Z,7.30
2022-11-24T02:45:36.400Z,7.40
2022-11-24T02:48:03.363Z,7.20
2022-11-24T02:50:30.324Z,7.20
2022-11-24T02:52:57.179Z,7.20
2022-11-24T02:55:24.799Z,7.30
2022-11-24T02:57:51.671Z,7.50
2022-11-24T03:00:19.001Z,7.60
2022-11-24T03:02:46.016Z,7.70
2022-11-24T03:05:13.396Z,7.80
2022-11-24T03:07:40.490Z,7.80
2022-11-24T03:10:07.822Z,7.80
2022-11-24T03:12:34.815Z,7.90
2022-11-24T03:15:03.233Z,7.90
2022-11-24T03:17:30.279Z,8.00
2022-11-24T03:20:02.949Z,8.00
2022-11-24T03:22:31.422Z,8.10
2022-11-24T03:24:58.583Z,8.10
2022-11-24T03:27:25.873Z,8.10
2022-11-24T03:29:52.784Z,8.00
2022-11-24T03:32:19.719Z,8.10
2022-11-24T03:34:46.627Z,8.10
2022-11-24T03:37:13.527Z,8.00
2022-11-24T03:39:40.547Z,8.00
2022-11-24T03:42:07.545Z,8.20
2022-11-24T03:44:34.726Z,8.30
2022-11-24T03:47:01.787Z,8.30
2022-11-24T03:49:29.272Z,8.30
2022-11-24T03:51:56.237Z,8.30
2022-11-24T03:54:23.411Z,8.30
2022-11-24T03:56:50.602Z,8.30
2022-11-24T03:59:17.997Z,8.40
2022-11-24T04:01:44.989Z,8.50
2022-11-24T04:04:12.883Z,8.60
2022-11-24T04:06:40.318Z,8.50
2022-11-24T04:09:07.979Z,8.50
2022-11-24T04:12:06.896Z,8.60
2022-11-24T04:14:34.015Z,8.50
2022-11-24T04:17:01.117Z,8.50
2022-11-24T04:19:28.037Z,8.60
2022-11-24T04:21:54.932Z,8.60
2022-11-24T04:24:21.888Z,8.60
2022-11-24T04:26:48.735Z,8.60
2022-11-24T04:29:15.712Z,8.70
2022-11-24T04:31:42.671Z,8.60
2022-11-24T04:34:10.612Z,8.60
2022-11-24T04:36:37.522Z,8.60
2022-11-24T04:39:23.589Z,8.60
2022-11-24T04:41:51.308Z,8.60
2022-11-24T04:44:18.324Z,8.60
2022-11-24T04:46:45.306Z,8.70
2022-11-24T04:49:12.297Z,8.70
2022-11-24T04:51:40.478Z,8.80
2022-11-24T04:54:10.138Z,8.80
2022-11-24T04:56:37.328Z,8.80
2022-11-24T04:59:08.165Z,8.70
2022-11-24T05:01:35.683Z,8.80
2022-11-24T05:04:02.785Z,8.80
2022-11-24T05:06:29.988Z,8.80
2022-11-24T05:08:56.854Z,8.80
2022-11-24T05:11:23.662Z,8.80
2022-11-24T05:13:52.612Z,8.80
2022-11-24T05:16:19.523Z,8.80
2022-11-24T05:18:46.433Z,8.90
2022-11-24T05:21:13.467Z,8.90
2022-11-24T05:23:40.341Z,9.00
2022-11-24T05:26:07.569Z,8.90
2022-11-24T05:28:37.551Z,8.80
2022-11-24T05:31:05.108Z,8.70
2022-11-24T05:33:33.395Z,8.70
2022-11-24T05:36:05.343Z,8.60
2022-11-24T05:38:33.223Z,8.60
2022-11-24T05:41:05.156Z,8.60
2022-11-24T05:43:32.071Z,8.60
2022-11-24T05:46:00.508Z,8.50
2022-11-24T05:48:28.029Z,8.50
2022-11-24T05:50:57.203Z,8.50
2022-11-24T05:53:25.685Z,8.60
2022-11-24T05:55:52.997Z,8.50
2022-11-24T05:58:20.111Z,8.50
2022-11-24T06:00:47.028Z,8.40
2022-11-24T06:03:14.101Z,8.50
2022-11-24T06:05:45.650Z,8.50
2022-11-24T06:08:12.653Z,8.50
2022-11-24T06:10:39.655Z,8.50
2022-11-24T06:13:07.780Z,8.50
2022-11-24T06:15:37.598Z,8.50
2022-11-24T06:18:04.622Z,8.50
2022-11-24T06:20:33.105Z,8.50
2022-11-24T06:23:01.174Z,8.50
2022-11-24T06:25:29.092Z,8.50
2022-11-24T06:27:56.076Z,8.50
2022-11-24T06:30:22.966Z,8.60
2022-11-24T06:32:53.990Z,8.60
2022-11-24T06:35:20.966Z,8.50
2022-11-24T06:37:47.823Z,8.40
2022-11-24T06:40:14.880Z,8.40
2022-11-24T06:42:41.795Z,8.40
2022-11-24T06:45:09.818Z,8.40
2022-11-24T06:47:37.242Z,8.40
2022-11-24T06:50:05.052Z,8.50
2022-11-24T06:52:31.888Z,8.40
2022-11-24T06:54:58.787Z,8.30
2022-11-24T06:57:26.835Z,8.40
2022-11-24T06:59:53.904Z,8.40
2022-11-24T07:02:20.793Z,8.40
2022-11-24T07:04:47.673Z,8.40
2022-11-24T07:07:14.588Z,8.40
2022-11-24T07:09:41.636Z,8.40
2022-11-24T07:12:08.572Z,8.40
2022-11-24T07:14:35.892Z,8.40
2022-11-24T07:17:04.717Z,8.40
2022-11-24T07:19:31.781Z,8.40
2022-11-24T07:21:58.727Z,8.40
2022-11-24T07:24:25.580Z,8.40
2022-11-24T07:26:52.492Z,8.40
2022-11-24T07:29:27.034Z,8.40
2022-11-24T07:31:54.085Z,8.50
2022-11-24T07:34:21.022Z,8.50
2022-11-24T07:36:47.901Z,8.60
2022-11-24T07:39:14.841Z,8.70
2022-11-24T07:41:41.661Z,8.70
2022-11-24T07:44:08.562Z,8.80
2022-11-24T07:46:35.537Z,8.80
2022-11-24T07:49:02.547Z,8.70
2022-11-24T07:51:29.511Z,8.80
2022-11-24T07:53:56.416Z,8.90
2022-11-24T07:56:23.407Z,8.90
2022-11-24T07:58:52.987Z,8.90
2022-11-24T08:01:20.785Z,9.10
2022-11-24T08:03:47.838Z,9.10
2022-11-24T08:06:27.355Z,9.10
2022-11-24T08:08:58.073Z,9.10
2022-11-24T08:11:26.164Z,9.20
2022-11-24T08:13:53.204Z,9.10
2022-11-24T08:16:20.884Z,9.20
2022-11-24T08:18:52.870Z,9.20
2022-11-24T08:21:20.589Z,9.20
2022-11-24T08:23:47.577Z,9.30
2022-11-24T08:26:17.992Z,9.30
2022-11-24T08:28:46.444Z,9.30
2022-11-24T08:31:16.672Z,9.40
2022-11-24T08:33:43.758Z,9.30
2022-11-24T08:36:19.358Z,9.30
2022-11-24T08:38:48.936Z,9.30
2022-11-24T08:41:17.383Z,9.30
2022-11-24T08:43:44.862Z,9.30
2022-11-24T08:46:17.510Z,9.30
2022-11-24T08:48:48.857Z,9.30
2022-11-24T08:51:18.559Z,9.30
2022-11-24T08:53:45.601Z,9.30
2022-11-24T08:56:13.697Z,9.40
2022-11-24T08:58:41.024Z,9.40
2022-11-24T09:01:09.994Z,9.40
2022-11-24T09:03:37.778Z,9.40
2022-11-24T09:06:05.838Z,9.30
2022-11-24T09:08:33.655Z,9.30
2022-11-24T09:11:10.087Z,9.40
2022-11-24T09:13:37.777Z,9.40
2022-11-24T09:16:07.980Z,9.40
2022-11-24T09:18:34.983Z,9.50
2022-11-24T09:21:16.338Z,9.40
2022-11-24T09:23:44.157Z,9.40
2022-11-24T09:26:32.661Z,9.40
2022-11-24T09:29:01.075Z,9.40
2022-11-24T09:31:31.446Z,9.40
2022-11-24T09:33:59.448Z,9.40
2022-11-24T09:36:26.646Z,9.40
2022-11-24T09:38:53.992Z,9.40
2022-11-24T09:41:50.907Z,9.30
2022-11-24T09:44:48.510Z,9.40
2022-11-24T09:47:15.310Z,9.40
2022-11-24T09:49:42.165Z,9.40
2022-11-24T09:52:18.089Z,9.30
2022-11-24T09:55:00.349Z,9.30
2022-11-24T09:57:35.862Z,9.30
2022-11-24T10:00:12.498Z,9.30
2022-11-24T10:02:39.927Z,9.30
2022-11-24T10:05:07.314Z,9.30
2022-11-24T10:07:42.688Z,9.30
2022-11-24T10:10:19.773Z,9.20
2022-11-24T10:13:26.429Z,9.10
2022-11-24T10:16:22.998Z,9.10
2022-11-24T10:19:17.789Z,8.90
2022-11-24T10:22:11.299Z,8.90
2022-11-24T10:24:41.033Z,8.90
2022-11-24T10:27:17.462Z,8.90
2022-11-24T10:29:51.139Z,8.80
2022-11-24T10:32:21.792Z,8.80
2022-11-24T10:34:50.678Z,8.80
2022-11-24T10:37:28.535Z,8.90
2022-11-24T10:40:49.101Z,9.00
2022-11-24T10:43:14.490Z,9.20
2022-11-24T10:45:41.786Z,9.20
2022-11-24T10:48:20.239Z,9.20
2022-11-24T10:50:47.592Z,9.50
2022-11-24T10:53:20.889Z,9.60
2022-11-24T10:55:56.795Z,9.60
2022-11-24T10:58:38.669Z,9.70
2022-11-24T11:01:31.961Z,9.60
2022-11-24T11:04:01.535Z,9.40
2022-11-24T11:06:32.148Z,9.40
2022-11-24T11:09:08.416Z,9.40
2022-11-24T11:11:38.677Z,9.50
2022-11-24T11:14:12.883Z,9.60
2022-11-24T11:16:50.729Z,9.60
2022-11-24T11:19:54.180Z,9.60
2022-11-24T11:22:22.543Z,9.80
2022-11-24T11:25:04.801Z,9.90
2022-11-24T11:27:31.715Z,9.90
2022-11-24T11:35:52.101Z,9.90
2022-11-24T11:38:19.596Z,9.90
2022-11-24T11:40:50.304Z,10.00
2022-11-24T11:43:30.901Z,9.90
2022-11-24T11:46:06.943Z,10.00
2022-11-24T11:48:43.071Z,10.20
2022-11-24T11:51:26.285Z,10.40
2022-11-24T11:54:04.278Z,10.60
2022-11-24T11:56:36.198Z,10.90
2022-11-24T11:59:18.578Z,11.30
2022-11-24T12:02:22.556Z,11.70
2022-11-24T12:04:56.168Z,11.60
2022-11-24T12:08:10.298Z,11.30
2022-11-24T12:10:48.092Z,11.80
2022-11-24T12:13:24.068Z,11.90
2022-11-24T12:15:57.929Z,11.80
2022-11-24T12:18:56.976Z,11.20
2022-11-24T12:21:27.531Z,10.80
2022-11-24T12:24:03.379Z,10.50
2022-11-24T12:26:58.948Z,10.50
2022-11-24T12:29:31.955Z,10.60
2022-11-24T12:32:36.225Z,10.80
2022-11-24T12:35:11.737Z,11.20
2022-11-24T12:38:05.560Z,11.30
2022-11-24T12:40:43.645Z,11.50
2022-11-24T12:43:30.469Z,11.90
2022-11-24T12:46:09.963Z,12.10
2022-11-24T12:49:05.023Z,11.90
2022-11-24T12:51:35.806Z,12.20
2022-11-24T12:54:06.467Z,12.40
2022-11-24T12:56:59.532Z,12.60
2022-11-24T12:59:54.358Z,12.90
2022-11-24T13:02:29.618Z,13.20
2022-11-24T13:05:05.082Z,12.80
2022-11-24T13:07:47.302Z,12.50
2022-11-24T13:10:54.788Z,12.80
2022-11-24T13:13:19.982Z,12.90
2022-11-24T13:16:07.065Z,12.80
2022-11-24T13:18:53.862Z,12.40
2022-11-24T13:21:32.343Z,11.90
2022-11-24T13:24:01.921Z,11.80
2022-11-24T13:26:30.364Z,11.50
2022-11-24T13:29:17.999Z,11.20
2022-11-24T13:31:51.656Z,11.30
2022-11-24T13:34:40.517Z,11.30
2022-11-24T13:37:26.799Z,11.40
2022-11-24T13:40:13.609Z,11.60
2022-11-24T13:43:13.028Z,11.70
2022-11-24T13:45:40.148Z,11.60
2022-11-24T13:48:19.929Z,11.30
2022-11-24T13:50:50.297Z,11.10
2022-11-24T13:53:32.214Z,11.00
2022-11-24T13:56:14.371Z,10.80
2022-11-24T13:58:56.677Z,10.70
2022-11-24T14:01:40.793Z,10.60
2022-11-24T14:04:33.293Z,10.60
2022-11-24T14:07:12.227Z,10.50
2022-11-24T14:09:43.687Z,10.40
2022-11-24T14:12:21.882Z,10.40
2022-11-24T14:14:51.150Z,10.40
2022-11-24T14:17:22.804Z,10.30
2022-11-24T14:19:52.081Z,10.20
2022-11-24T14:22:20.841Z,10.10
2022-11-24T14:24:57.367Z,10.10
2022-11-24T14:27:38.468Z,10.10
2022-11-24T14:30:13.331Z,10.10
2022-11-24T14:32:42.273Z,10.10
2022-11-24T14:35:50.563Z,10.00
2022-11-24T14:38:17.598Z,9.90
2022-11-24T14:40:51.549Z,9.90
2022-11-24T14:43:32.470Z,9.80
2022-11-24T14:46:17.786Z,9.80
2022-11-24T14:48:53.267Z,9.80
2022-11-24T14:51:37.502Z,9.60
2022-11-24T14:54:16.539Z,9.50
2022-11-24T14:57:06.038Z,9.50
2022-11-24T14:59:39.518Z,9.40
2022-11-24T15:02:38.233Z,9.20
2022-11-24T15:05:05.807Z,9.20
2022-11-24T15:07:35.855Z,9.10
2022-11-24T15:10:05.243Z,9.00
2022-11-24T15:12:37.880Z,9.00
2022-11-24T15:15:13.699Z,8.90
2022-11-24T15:18:00.520Z,8.90
2022-11-24T15:20:35.439Z,8.70
2022-11-24T15:23:20.684Z,8.60
2022-11-24T15:25:48.227Z,8.50
2022-11-24T15:28:15.184Z,8.50
2022-11-24T15:30:42.364Z,8.60
2022-11-24T15:33:15.577Z,8.50
2022-11-24T15:35:42.907Z,8.50
2022-11-24T15:38:10.197Z,8.50
2022-11-24T15:40:42.047Z,8.50
2022-11-24T15:43:19.487Z,8.40
2022-11-24T15:45:46.448Z,8.40
2022-11-24T15:48:17.659Z,8.40
2022-11-24T15:50:46.418Z,8.30
2022-11-24T15:53:22.311Z,8.30
2022-11-24T15:55:50.458Z,8.40
2022-11-24T15:58:17.383Z,8.20
2022-11-24T16:00:45.059Z,8.10
2022-11-24T16:03:45.175Z,8.10
2022-11-24T16:05:59.111Z,8.00
2022-11-24T16:08:26.040Z,8.00
2022-11-24T16:10:52.956Z,8.10
2022-11-24T16:13:19.805Z,8.20
2022-11-24T16:15:46.795Z,8.20
2022-11-24T16:18:15.674Z,8.20
2022-11-24T16:20:42.613Z,8.20
2022-11-24T16:23:09.518Z,8.00
2022-11-24T16:25:36.400Z,8.00
2022-11-24T16:28:03.439Z,7.90
2022-11-24T16:30:30.335Z,7.80
2022-11-24T16:32:57.368Z,7.80
2022-11-24T16:35:24.408Z,7.80
2022-11-24T16:37:51.240Z,7.80
2022-11-24T16:40:18.427Z,7.80
2022-11-24T16:42:45.311Z,7.80
2022-11-24T16:45:13.114Z,7.70
2022-11-24T16:47:42.118Z,7.80
2022-11-24T16:50:11.211Z,7.80
2022-11-24T16:52:38.787Z,7.80
2022-11-24T16:55:07.239Z,7.70
2022-11-24T16:57:35.134Z,7.60
2022-11-24T17:00:02.210Z,7.50
2022-11-24T17:02:29.204Z,7.40
2022-11-24T17:04:56.133Z,7.40
2022-11-24T17:07:23.181Z,7.30
2022-11-24T17:09:50.133Z,7.30
2022-11-24T17:12:17.079Z,7.10
2022-11-24T17:14:52.657Z,7.00
2022-11-24T17:17:30.193Z,6.70
2022-11-24T17:19:57.150Z,6.70
2022-11-24T17:22:24.067Z,6.80
2022-11-24T17:24:50.891Z,6.70
2022-11-24T17:27:17.793Z,6.90
2022-11-24T17:29:44.703Z,6.90
2022-11-24T17:32:11.675Z,7.00
2022-11-24T17:34:38.585Z,6.90
2022-11-24T17:37:05.684Z,6.80
2022-11-24T17:39:32.594Z,6.70
2022-11-24T17:41:59.471Z,6.70
2022-11-24T17:44:26.996Z,6.70
2022-11-24T17:46:54.289Z,6.60
2022-11-24T17:49:21.241Z,6.60
2022-11-24T17:51:50.443Z,6.60
2022-11-24T17:54:56.547Z,6.70
2022-11-24T17:57:05.134Z,6.70
2022-11-24T17:59:32.033Z,6.70
2022-11-24T18:01:59.024Z,6.70
2022-11-24T18:04:26.007Z,6.60
2022-11-24T18:06:52.968Z,6.60
2022-11-24T18:09:19.934Z,6.60
2022-11-24T18:11:47.848Z,6.40
2022-11-24T18:14:14.805Z,6.60
2022-11-24T18:16:41.862Z,6.50
2022-11-24T18:19:10.946Z,6.60
2022-11-24T18:21:40.349Z,6.70
2022-11-24T18:24:11.431Z,6.70
2022-11-24T18:26:40.096Z,6.70
2022-11-24T18:29:08.090Z,6.70
2022-11-24T18:31:36.035Z,6.60
2022-11-24T18:34:05.330Z,6.60
2022-11-24T18:36:32.924Z,6.50
2022-11-24T18:39:07.552Z,6.50
2022-11-24T18:41:34.884Z,6.50
2022-11-24T18:44:03.079Z,6.40
2022-11-24T18:46:30.163Z,6.40
2022-11-24T18:48:57.097Z,6.40
2022-11-24T18:51:24.049Z,6.50
2022-11-24T18:53:57.883Z,6.30
2022-11-24T18:56:25.741Z,6.30
2022-11-24T18:58:54.447Z,6.30
2022-11-24T19:01:24.344Z,6.30
2022-11-24T19:03:53.650Z,6.20
2022-11-24T19:06:21.820Z,6.20
2022-11-24T19:08:49.109Z,6.30
2022-11-24T19:11:23.943Z,6.20
2022-11-24T19:13:51.560Z,6.30
2022-11-24T19:16:20.544Z,6.30
2022-11-24T19:18:53.763Z,6.40
2022-11-24T19:21:21.937Z,6.40
2022-11-24T19:23:49.404Z,6.50
2022-11-24T19:26:16.306Z,6.40
2022-11-24T19:28:43.283Z,6.40
2022-11-24T19:31:13.186Z,6.30
2022-11-24T19:33:40.966Z,6.30
2022-11-24T19:36:15.278Z,6.30
2022-11-24T19:38:43.346Z,6.30
2022-11-24T19:41:12.515Z,6.30
2022-11-24T19:43:40.240Z,6.30
2022-11-24T19:46:12.410Z,6.40
2022-11-24T19:48:50.388Z,6.40
2022-11-24T19:51:19.833Z,6.50
2022-11-24T19:53:46.956Z,6.70
2022-11-24T19:56:17.056Z,6.70
2022-11-24T19:58:44.312Z,6.70
2022-11-24T20:01:21.400Z,6.70
2022-11-24T20:03:53.526Z,6.50
2022-11-24T20:06:20.527Z,6.50
2022-11-24T20:08:47.458Z,6.50
2022-11-24T20:11:17.303Z,6.60
2022-11-24T20:13:45.610Z,6.70
2022-11-24T20:16:18.551Z,6.50
2022-11-24T20:18:47.279Z,6.40
2022-11-24T20:21:19.653Z,6.40
2022-11-24T20:23:52.328Z,6.30
2022-11-24T20:26:22.874Z,6.20
2022-11-24T20:28:51.535Z,6.30
2022-11-24T20:31:21.381Z,6.20
2022-11-24T20:33:48.426Z,6.20
2022-11-24T20:36:21.068Z,6.20
2022-11-24T20:38:49.533Z,6.00
2022-11-24T20:41:28.840Z,6.10
2022-11-24T20:43:58.128Z,6.10
2022-11-24T20:46:27.481Z,6.10
2022-11-24T20:48:55.356Z,6.10
2022-11-24T20:51:28.398Z,6.20
2022-11-24T20:53:58.476Z,6.10
2022-11-24T20:56:31.433Z,6.00
2022-11-24T20:58:59.371Z,6.00
2022-11-24T21:01:29.878Z,6.00
2022-11-24T21:03:59.131Z,6.10
2022-11-24T21:06:27.980Z,6.10
2022-11-24T21:09:00.465Z,6.20
2022-11-24T21:11:30.666Z,6.10
2022-11-24T21:13:58.081Z,6.10
2022-11-24T21:16:27.986Z,5.90
2022-11-24T21:19:01.973Z,5.80
2022-11-24T21:21:34.673Z,5.70
2022-11-24T21:24:09.490Z,5.60
2022-11-24T21:26:37.126Z,5.50
2022-11-24T21:29:04.962Z,5.30
2022-11-24T21:31:36.873Z,5.10
2022-11-24T21:34:05.337Z,5.10
2022-11-24T21:36:34.083Z,5.00
2022-11-24T21:39:02.148Z,4.90
2022-11-24T21:41:31.811Z,4.90
2022-11-24T21:43:58.760Z,4.80
2022-11-24T21:46:25.677Z,4.60
2022-11-24T21:48:52.598Z,4.50
2022-11-24T21:51:20.711Z,4.40
2022-11-24T21:53:48.098Z,4.30
2022-11-24T21:56:17.854Z,4.10
2022-11-24T21:58:47.189Z,4.00
2022-11-24T22:01:16.047Z,3.90
2022-11-24T22:03:43.675Z,4.00
2022-11-24T22:06:10.858Z,4.00
2022-11-24T22:08:38.145Z,4.00
2022-11-24T22:11:14.997Z,4.00
2022-11-24T22:13:42.976Z,3.90
2022-11-24T22:16:15.779Z,3.90
2022-11-24T22:18:44.166Z,3.80
2022-11-24T22:21:13.855Z,3.70
2022-11-24T22:23:41.114Z,3.60
2022-11-24T22:26:12.818Z,3.70
2022-11-24T22:28:40.343Z,3.80
2022-11-24T22:31:19.278Z,3.70
2022-11-24T22:33:47.047Z,3.70
2022-11-24T22:36:15.791Z,3.50
2022-11-24T22:38:43.051Z,3.40
2022-11-24T22:41:12.837Z,3.40
2022-11-24T22:43:41.333Z,3.30
2022-11-24T22:46:13.466Z,3.20
2022-11-24T22:48:41.128Z,3.20
2022-11-24T22:51:13.634Z,3.10
2022-11-24T22:53:41.856Z,3.10
2022-11-24T22:56:10.864Z,3.10
2022-11-24T22:58:39.324Z,3.10
2022-11-24T23:01:07.612Z,3.20
2022-11-24T23:03:35.325Z,3.10
2022-11-24T23:06:04.055Z,3.00
2022-11-24T23:08:33.820Z,3.00
2022-11-24T23:11:07.005Z,3.00
2022-11-24T23:13:34.243Z,3.00
2022-11-24T23:16:06.771Z,3.00
2022-11-24T23:18:34.360Z,3.00
2022-11-24T23:21:19.126Z,3.10
2022-11-24T23:23:46.828Z,3.20
2022-11-24T23:26:16.317Z,3.30
2022-11-24T23:28:43.516Z,3.20
2022-11-24T23:31:13.698Z,3.20
2022-11-24T23:33:41.041Z,3.20
2022-11-24T23:36:13.199Z,3.20
2022-11-24T23:38:40.780Z,3.30
2022-11-24T23:41:10.807Z,3.30
2022-11-24T23:43:39.733Z,3.30
2022-11-24T23:46:08.198Z,3.20
2022-11-24T23:48:35.733Z,3.10
2022-11-24T23:51:12.277Z,3.10
2022-11-24T23:53:39.392Z,3.00
2022-11-24T23:56:06.781Z,3.10
2022-11-24T23:58:34.162Z,3.10
